sensor_id;sensor_type;location;lat;lon;timestamp;P1;durP1;ratioP1;P2;durP2;ratioP2
4377;SDS011;2203;53.686;9.994;2023-03-19T00:02:06;27.20;;;14.17;;
4377;SDS011;2203;53.686;9.994;2023-03-19T00:04:32;24.90;;;13.87;;
4377;SDS011;2203;53.686;9.994;2023-03-19T00:06:57;21.77;;;12.60;;
4377;SDS011;2203;53.686;9.994;2023-03-19T00:09:23;23.97;;;13.53;;
4377;SDS011;2203;53.686;9.994;2023-03-19T00:11:48;21.60;;;13.03;;
4377;SDS011;2203;53.686;9.994;2023-03-19T00:14:14;24.60;;;14.67;;
4377;SDS011;2203;53.686;9.994;2023-03-19T00:16:40;32.93;;;14.80;;
4377;SDS011;2203;53.686;9.994;2023-03-19T00:19:05;27.83;;;14.10;;
4377;SDS011;2203;53.686;9.994;2023-03-19T00:21:31;21.67;;;13.90;;
4377;SDS011;2203;53.686;9.994;2023-03-19T00:23:57;24.97;;;14.03;;
4377;SDS011;2203;53.686;9.994;2023-03-19T00:26:27;21.13;;;12.60;;
4377;SDS011;2203;53.686;9.994;2023-03-19T00:28:53;22.80;;;13.43;;
4377;SDS011;2203;53.686;9.994;2023-03-19T00:31:20;26.50;;;13.20;;
4377;SDS011;2203;53.686;9.994;2023-03-19T00:33:46;19.07;;;12.80;;
4377;SDS011;2203;53.686;9.994;2023-03-19T00:36:11;18.60;;;11.60;;
4377;SDS011;2203;53.686;9.994;2023-03-19T00:38:37;23.80;;;13.03;;
4377;SDS011;2203;53.686;9.994;2023-03-19T00:41:03;26.00;;;13.10;;
4377;SDS011;2203;53.686;9.994;2023-03-19T00:43:29;22.77;;;12.80;;
4377;SDS011;2203;53.686;9.994;2023-03-19T00:45:55;23.97;;;12.87;;
4377;SDS011;2203;53.686;9.994;2023-03-19T00:48:21;27.23;;;12.63;;
4377;SDS011;2203;53.686;9.994;2023-03-19T00:50:47;24.47;;;13.20;;
4377;SDS011;2203;53.686;9.994;2023-03-19T00:53:12;20.40;;;12.03;;
4377;SDS011;2203;53.686;9.994;2023-03-19T00:55:38;23.87;;;12.77;;
4377;SDS011;2203;53.686;9.994;2023-03-19T00:58:03;17.73;;;11.73;;
4377;SDS011;2203;53.686;9.994;2023-03-19T01:00:30;18.90;;;11.70;;
4377;SDS011;2203;53.686;9.994;2023-03-19T01:02:57;21.97;;;11.70;;
4377;SDS011;2203;53.686;9.994;2023-03-19T01:05:22;16.87;;;11.07;;
4377;SDS011;2203;53.686;9.994;2023-03-19T01:07:48;18.33;;;10.87;;
4377;SDS011;2203;53.686;9.994;2023-03-19T01:10:16;16.07;;;11.27;;
4377;SDS011;2203;53.686;9.994;2023-03-19T01:12:42;20.10;;;11.97;;
4377;SDS011;2203;53.686;9.994;2023-03-19T01:15:08;17.37;;;10.90;;
4377;SDS011;2203;53.686;9.994;2023-03-19T01:17:33;22.03;;;11.40;;
4377;SDS011;2203;53.686;9.994;2023-03-19T01:19:59;17.07;;;11.37;;
4377;SDS011;2203;53.686;9.994;2023-03-19T01:22:25;17.60;;;11.50;;
4377;SDS011;2203;53.686;9.994;2023-03-19T01:24:50;21.80;;;11.37;;
4377;SDS011;2203;53.686;9.994;2023-03-19T01:27:15;22.13;;;11.17;;
4377;SDS011;2203;53.686;9.994;2023-03-19T01:29:41;18.73;;;10.30;;
4377;SDS011;2203;53.686;9.994;2023-03-19T01:32:06;22.03;;;11.47;;
4377;SDS011;2203;53.686;9.994;2023-03-19T01:34:32;18.43;;;11.20;;
4377;SDS011;2203;53.686;9.994;2023-03-19T01:36:57;18.23;;;11.00;;
4377;SDS011;2203;53.686;9.994;2023-03-19T01:39:22;21.07;;;10.80;;
4377;SDS011;2203;53.686;9.994;2023-03-19T01:41:48;21.00;;;11.10;;
4377;SDS011;2203;53.686;9.994;2023-03-19T01:46:51;18.70;;;11.13;;
4377;SDS011;2203;53.686;9.994;2023-03-19T01:49:17;18.27;;;10.50;;
4377;SDS011;2203;53.686;9.994;2023-03-19T01:51:44;20.30;;;12.13;;
4377;SDS011;2203;53.686;9.994;2023-03-19T01:54:11;18.87;;;11.70;;
4377;SDS011;2203;53.686;9.994;2023-03-19T01:56:38;21.67;;;11.17;;
4377;SDS011;2203;53.686;9.994;2023-03-19T01:59:08;19.67;;;12.07;;
4377;SDS011;2203;53.686;9.994;2023-03-19T02:01:37;19.57;;;11.40;;
4377;SDS011;2203;53.686;9.994;2023-03-19T02:04:06;18.30;;;12.03;;
4377;SDS011;2203;53.686;9.994;2023-03-19T02:06:31;16.60;;;10.33;;
4377;SDS011;2203;53.686;9.994;2023-03-19T02:08:57;15.83;;;10.63;;
4377;SDS011;2203;53.686;9.994;2023-03-19T02:11:23;17.17;;;11.40;;
4377;SDS011;2203;53.686;9.994;2023-03-19T02:13:48;19.47;;;11.37;;
4377;SDS011;2203;53.686;9.994;2023-03-19T02:16:14;21.73;;;11.57;;
4377;SDS011;2203;53.686;9.994;2023-03-19T02:18:40;18.90;;;11.20;;
4377;SDS011;2203;53.686;9.994;2023-03-19T02:21:10;20.93;;;11.47;;
4377;SDS011;2203;53.686;9.994;2023-03-19T02:26:41;18.50;;;11.60;;
4377;SDS011;2203;53.686;9.994;2023-03-19T02:29:08;20.47;;;11.23;;
4377;SDS011;2203;53.686;9.994;2023-03-19T02:31:33;17.43;;;10.40;;
4377;SDS011;2203;53.686;9.994;2023-03-19T02:36:36;16.90;;;11.40;;
4377;SDS011;2203;53.686;9.994;2023-03-19T02:39:05;17.70;;;11.47;;
4377;SDS011;2203;53.686;9.994;2023-03-19T02:41:32;26.30;;;10.40;;
4377;SDS011;2203;53.686;9.994;2023-03-19T02:43:58;14.60;;;9.60;;
4377;SDS011;2203;53.686;9.994;2023-03-19T02:46:25;15.80;;;10.33;;
4377;SDS011;2203;53.686;9.994;2023-03-19T02:48:51;21.30;;;11.13;;
4377;SDS011;2203;53.686;9.994;2023-03-19T02:51:17;14.67;;;10.73;;
4377;SDS011;2203;53.686;9.994;2023-03-19T02:53:43;18.73;;;11.07;;
4377;SDS011;2203;53.686;9.994;2023-03-19T02:56:09;18.90;;;9.83;;
4377;SDS011;2203;53.686;9.994;2023-03-19T02:58:34;19.70;;;10.17;;
4377;SDS011;2203;53.686;9.994;2023-03-19T03:01:00;16.03;;;8.97;;
4377;SDS011;2203;53.686;9.994;2023-03-19T03:03:25;15.87;;;10.90;;
4377;SDS011;2203;53.686;9.994;2023-03-19T03:05:51;15.57;;;9.87;;
4377;SDS011;2203;53.686;9.994;2023-03-19T03:08:16;17.20;;;10.60;;
4377;SDS011;2203;53.686;9.994;2023-03-19T03:10:42;21.23;;;10.60;;
4377;SDS011;2203;53.686;9.994;2023-03-19T03:13:08;15.47;;;9.23;;
4377;SDS011;2203;53.686;9.994;2023-03-19T03:15:33;14.50;;;9.50;;
4377;SDS011;2203;53.686;9.994;2023-03-19T03:17:59;16.90;;;10.50;;
4377;SDS011;2203;53.686;9.994;2023-03-19T03:20:24;17.87;;;9.07;;
4377;SDS011;2203;53.686;9.994;2023-03-19T03:22:50;17.80;;;10.33;;
4377;SDS011;2203;53.686;9.994;2023-03-19T03:25:16;14.93;;;9.10;;
4377;SDS011;2203;53.686;9.994;2023-03-19T03:27:41;14.33;;;9.43;;
4377;SDS011;2203;53.686;9.994;2023-03-19T03:30:07;18.57;;;10.17;;
4377;SDS011;2203;53.686;9.994;2023-03-19T03:32:35;18.33;;;10.40;;
4377;SDS011;2203;53.686;9.994;2023-03-19T03:35:01;19.30;;;9.10;;
4377;SDS011;2203;53.686;9.994;2023-03-19T03:37:28;16.20;;;8.47;;
4377;SDS011;2203;53.686;9.994;2023-03-19T03:39:53;20.67;;;9.50;;
4377;SDS011;2203;53.686;9.994;2023-03-19T03:42:20;11.70;;;8.30;;
4377;SDS011;2203;53.686;9.994;2023-03-19T03:44:45;12.40;;;8.73;;
4377;SDS011;2203;53.686;9.994;2023-03-19T03:47:11;17.00;;;9.73;;
4377;SDS011;2203;53.686;9.994;2023-03-19T03:49:37;14.40;;;9.43;;
4377;SDS011;2203;53.686;9.994;2023-03-19T03:52:02;16.27;;;9.47;;
4377;SDS011;2203;53.686;9.994;2023-03-19T03:54:28;14.53;;;9.23;;
4377;SDS011;2203;53.686;9.994;2023-03-19T03:56:53;18.87;;;9.93;;
4377;SDS011;2203;53.686;9.994;2023-03-19T03:59:18;12.93;;;8.50;;
4377;SDS011;2203;53.686;9.994;2023-03-19T04:01:44;11.10;;;8.30;;
4377;SDS011;2203;53.686;9.994;2023-03-19T04:04:10;15.47;;;8.30;;
4377;SDS011;2203;53.686;9.994;2023-03-19T04:06:35;12.83;;;9.10;;
4377;SDS011;2203;53.686;9.994;2023-03-19T04:09:00;11.77;;;8.43;;
4377;SDS011;2203;53.686;9.994;2023-03-19T04:11:26;14.50;;;9.23;;
4377;SDS011;2203;53.686;9.994;2023-03-19T04:13:55;16.20;;;8.77;;
4377;SDS011;2203;53.686;9.994;2023-03-19T04:16:22;10.50;;;7.60;;
4377;SDS011;2203;53.686;9.994;2023-03-19T04:18:48;10.30;;;8.20;;
4377;SDS011;2203;53.686;9.994;2023-03-19T04:21:13;12.67;;;8.40;;
4377;SDS011;2203;53.686;9.994;2023-03-19T04:23:38;10.47;;;8.07;;
4377;SDS011;2203;53.686;9.994;2023-03-19T04:26:04;17.00;;;8.00;;
4377;SDS011;2203;53.686;9.994;2023-03-19T04:28:31;12.10;;;8.47;;
4377;SDS011;2203;53.686;9.994;2023-03-19T04:30:57;11.40;;;7.10;;
4377;SDS011;2203;53.686;9.994;2023-03-19T04:33:25;12.67;;;7.20;;
4377;SDS011;2203;53.686;9.994;2023-03-19T04:35:50;12.33;;;7.90;;
4377;SDS011;2203;53.686;9.994;2023-03-19T04:38:16;12.10;;;7.60;;
4377;SDS011;2203;53.686;9.994;2023-03-19T04:40:42;16.00;;;8.57;;
4377;SDS011;2203;53.686;9.994;2023-03-19T04:43:07;11.30;;;7.70;;
4377;SDS011;2203;53.686;9.994;2023-03-19T04:45:33;13.40;;;8.13;;
4377;SDS011;2203;53.686;9.994;2023-03-19T04:47:58;12.27;;;7.13;;
4377;SDS011;2203;53.686;9.994;2023-03-19T04:50:23;14.87;;;8.00;;
4377;SDS011;2203;53.686;9.994;2023-03-19T04:52:49;18.30;;;8.23;;
4377;SDS011;2203;53.686;9.994;2023-03-19T04:55:14;11.33;;;7.30;;
4377;SDS011;2203;53.686;9.994;2023-03-19T04:57:39;11.10;;;7.10;;
4377;SDS011;2203;53.686;9.994;2023-03-19T05:00:05;12.37;;;7.70;;
4377;SDS011;2203;53.686;9.994;2023-03-19T05:02:31;11.03;;;6.97;;
4377;SDS011;2203;53.686;9.994;2023-03-19T05:04:56;10.30;;;7.27;;
4377;SDS011;2203;53.686;9.994;2023-03-19T05:07:22;11.97;;;7.50;;
4377;SDS011;2203;53.686;9.994;2023-03-19T05:09:47;12.30;;;7.20;;
4377;SDS011;2203;53.686;9.994;2023-03-19T05:12:12;11.90;;;7.20;;
4377;SDS011;2203;53.686;9.994;2023-03-19T05:14:38;9.17;;;6.30;;
4377;SDS011;2203;53.686;9.994;2023-03-19T05:17:04;13.40;;;7.43;;
4377;SDS011;2203;53.686;9.994;2023-03-19T05:19:29;8.90;;;6.57;;
4377;SDS011;2203;53.686;9.994;2023-03-19T05:21:54;11.00;;;7.03;;
4377;SDS011;2203;53.686;9.994;2023-03-19T05:24:21;9.00;;;6.93;;
4377;SDS011;2203;53.686;9.994;2023-03-19T05:26:48;8.93;;;6.93;;
4377;SDS011;2203;53.686;9.994;2023-03-19T05:29:13;10.00;;;6.77;;
4377;SDS011;2203;53.686;9.994;2023-03-19T05:31:39;10.13;;;7.17;;
4377;SDS011;2203;53.686;9.994;2023-03-19T05:34:05;13.80;;;7.50;;
4377;SDS011;2203;53.686;9.994;2023-03-19T05:36:30;10.23;;;7.20;;
4377;SDS011;2203;53.686;9.994;2023-03-19T05:38:55;8.57;;;6.20;;
4377;SDS011;2203;53.686;9.994;2023-03-19T05:41:21;9.47;;;6.10;;
4377;SDS011;2203;53.686;9.994;2023-03-19T05:43:46;11.37;;;6.30;;
4377;SDS011;2203;53.686;9.994;2023-03-19T05:46:12;7.13;;;5.53;;
4377;SDS011;2203;53.686;9.994;2023-03-19T05:48:37;7.63;;;5.80;;
4377;SDS011;2203;53.686;9.994;2023-03-19T05:51:03;13.50;;;7.40;;
4377;SDS011;2203;53.686;9.994;2023-03-19T05:53:29;10.07;;;6.80;;
4377;SDS011;2203;53.686;9.994;2023-03-19T05:55:54;13.60;;;7.10;;
4377;SDS011;2203;53.686;9.994;2023-03-19T05:58:19;11.63;;;6.87;;
4377;SDS011;2203;53.686;9.994;2023-03-19T06:00:45;8.93;;;5.80;;
4377;SDS011;2203;53.686;9.994;2023-03-19T06:03:12;11.50;;;6.30;;
4377;SDS011;2203;53.686;9.994;2023-03-19T06:05:38;7.10;;;5.00;;
4377;SDS011;2203;53.686;9.994;2023-03-19T06:08:03;5.80;;;5.00;;
4377;SDS011;2203;53.686;9.994;2023-03-19T06:10:29;9.80;;;5.90;;
4377;SDS011;2203;53.686;9.994;2023-03-19T06:12:54;8.53;;;5.20;;
4377;SDS011;2203;53.686;9.994;2023-03-19T06:15:20;6.97;;;5.30;;
4377;SDS011;2203;53.686;9.994;2023-03-19T06:17:45;8.00;;;6.00;;
4377;SDS011;2203;53.686;9.994;2023-03-19T06:20:11;7.50;;;4.80;;
4377;SDS011;2203;53.686;9.994;2023-03-19T06:22:37;10.37;;;5.27;;
4377;SDS011;2203;53.686;9.994;2023-03-19T06:25:02;8.50;;;5.67;;
4377;SDS011;2203;53.686;9.994;2023-03-19T06:27:28;9.00;;;5.87;;
4377;SDS011;2203;53.686;9.994;2023-03-19T06:29:53;7.93;;;5.23;;
4377;SDS011;2203;53.686;9.994;2023-03-19T06:32:19;10.63;;;5.07;;
4377;SDS011;2203;53.686;9.994;2023-03-19T06:34:44;12.63;;;6.07;;
4377;SDS011;2203;53.686;9.994;2023-03-19T06:37:10;10.70;;;5.80;;
4377;SDS011;2203;53.686;9.994;2023-03-19T06:39:36;9.93;;;5.13;;
4377;SDS011;2203;53.686;9.994;2023-03-19T06:42:02;6.90;;;5.23;;
4377;SDS011;2203;53.686;9.994;2023-03-19T06:44:27;7.13;;;5.40;;
4377;SDS011;2203;53.686;9.994;2023-03-19T06:46:53;13.30;;;5.20;;
4377;SDS011;2203;53.686;9.994;2023-03-19T06:49:19;10.50;;;5.70;;
4377;SDS011;2203;53.686;9.994;2023-03-19T06:51:45;7.93;;;5.87;;
4377;SDS011;2203;53.686;9.994;2023-03-19T06:54:11;10.90;;;6.23;;
4377;SDS011;2203;53.686;9.994;2023-03-19T06:56:36;7.57;;;5.30;;
4377;SDS011;2203;53.686;9.994;2023-03-19T06:59:02;10.17;;;6.07;;
4377;SDS011;2203;53.686;9.994;2023-03-19T07:01:27;7.90;;;5.50;;
4377;SDS011;2203;53.686;9.994;2023-03-19T07:03:52;8.40;;;5.93;;
4377;SDS011;2203;53.686;9.994;2023-03-19T07:06:18;8.43;;;5.73;;
4377;SDS011;2203;53.686;9.994;2023-03-19T07:08:43;8.80;;;5.83;;
4377;SDS011;2203;53.686;9.994;2023-03-19T07:11:12;11.43;;;6.43;;
4377;SDS011;2203;53.686;9.994;2023-03-19T07:13:37;7.17;;;6.00;;
4377;SDS011;2203;53.686;9.994;2023-03-19T07:16:04;13.60;;;6.40;;
4377;SDS011;2203;53.686;9.994;2023-03-19T07:18:30;11.30;;;6.60;;
4377;SDS011;2203;53.686;9.994;2023-03-19T07:20:55;11.87;;;7.53;;
4377;SDS011;2203;53.686;9.994;2023-03-19T07:23:21;13.27;;;7.37;;
4377;SDS011;2203;53.686;9.994;2023-03-19T07:25:46;16.73;;;6.90;;
4377;SDS011;2203;53.686;9.994;2023-03-19T07:28:12;9.03;;;6.00;;
4377;SDS011;2203;53.686;9.994;2023-03-19T07:30:37;12.33;;;7.50;;
4377;SDS011;2203;53.686;9.994;2023-03-19T07:33:04;15.60;;;8.33;;
4377;SDS011;2203;53.686;9.994;2023-03-19T07:35:31;11.00;;;6.50;;
4377;SDS011;2203;53.686;9.994;2023-03-19T07:37:57;11.13;;;7.33;;
4377;SDS011;2203;53.686;9.994;2023-03-19T07:40:23;12.53;;;7.57;;
4377;SDS011;2203;53.686;9.994;2023-03-19T07:42:49;13.63;;;6.87;;
4377;SDS011;2203;53.686;9.994;2023-03-19T07:45:15;9.30;;;6.00;;
4377;SDS011;2203;53.686;9.994;2023-03-19T07:47:40;12.07;;;6.53;;
4377;SDS011;2203;53.686;9.994;2023-03-19T07:50:06;9.73;;;6.47;;
4377;SDS011;2203;53.686;9.994;2023-03-19T07:52:31;14.13;;;7.67;;
4377;SDS011;2203;53.686;9.994;2023-03-19T07:54:57;14.50;;;7.63;;
4377;SDS011;2203;53.686;9.994;2023-03-19T07:57:22;12.03;;;7.30;;
4377;SDS011;2203;53.686;9.994;2023-03-19T07:59:49;15.70;;;6.50;;
4377;SDS011;2203;53.686;9.994;2023-03-19T08:02:14;13.50;;;7.30;;
4377;SDS011;2203;53.686;9.994;2023-03-19T08:04:40;21.30;;;7.80;;
4377;SDS011;2203;53.686;9.994;2023-03-19T08:07:05;14.70;;;8.53;;
4377;SDS011;2203;53.686;9.994;2023-03-19T08:09:32;14.47;;;8.00;;
4377;SDS011;2203;53.686;9.994;2023-03-19T08:11:58;8.93;;;6.80;;
4377;SDS011;2203;53.686;9.994;2023-03-19T08:14:23;14.77;;;7.50;;
4377;SDS011;2203;53.686;9.994;2023-03-19T08:16:48;11.40;;;7.17;;
4377;SDS011;2203;53.686;9.994;2023-03-19T08:19:14;12.90;;;7.10;;
4377;SDS011;2203;53.686;9.994;2023-03-19T08:21:40;11.10;;;6.23;;
4377;SDS011;2203;53.686;9.994;2023-03-19T08:24:06;17.03;;;8.97;;
4377;SDS011;2203;53.686;9.994;2023-03-19T08:26:31;16.30;;;7.53;;
4377;SDS011;2203;53.686;9.994;2023-03-19T08:28:57;10.60;;;6.87;;
4377;SDS011;2203;53.686;9.994;2023-03-19T08:31:23;11.37;;;7.13;;
4377;SDS011;2203;53.686;9.994;2023-03-19T08:33:49;13.13;;;7.13;;
4377;SDS011;2203;53.686;9.994;2023-03-19T08:36:14;14.70;;;9.10;;
4377;SDS011;2203;53.686;9.994;2023-03-19T08:38:40;9.67;;;6.90;;
4377;SDS011;2203;53.686;9.994;2023-03-19T08:41:05;15.50;;;7.17;;
4377;SDS011;2203;53.686;9.994;2023-03-19T08:43:33;13.90;;;7.00;;
4377;SDS011;2203;53.686;9.994;2023-03-19T08:46:00;16.50;;;6.97;;
4377;SDS011;2203;53.686;9.994;2023-03-19T08:48:26;13.13;;;7.30;;
4377;SDS011;2203;53.686;9.994;2023-03-19T08:50:56;12.40;;;7.03;;
4377;SDS011;2203;53.686;9.994;2023-03-19T08:53:23;8.50;;;6.40;;
4377;SDS011;2203;53.686;9.994;2023-03-19T08:55:52;13.40;;;7.47;;
4377;SDS011;2203;53.686;9.994;2023-03-19T08:58:18;12.50;;;6.53;;
4377;SDS011;2203;53.686;9.994;2023-03-19T09:00:44;12.33;;;5.83;;
4377;SDS011;2203;53.686;9.994;2023-03-19T09:03:10;10.33;;;6.10;;
4377;SDS011;2203;53.686;9.994;2023-03-19T09:05:36;16.77;;;6.90;;
4377;SDS011;2203;53.686;9.994;2023-03-19T09:08:01;13.40;;;5.27;;
4377;SDS011;2203;53.686;9.994;2023-03-19T09:10:27;11.27;;;6.00;;
4377;SDS011;2203;53.686;9.994;2023-03-19T09:12:52;6.83;;;4.30;;
4377;SDS011;2203;53.686;9.994;2023-03-19T09:15:18;7.97;;;5.23;;
4377;SDS011;2203;53.686;9.994;2023-03-19T09:17:43;8.50;;;4.87;;
4377;SDS011;2203;53.686;9.994;2023-03-19T09:20:09;7.40;;;5.80;;
4377;SDS011;2203;53.686;9.994;2023-03-19T09:22:35;8.10;;;4.53;;
4377;SDS011;2203;53.686;9.994;2023-03-19T09:25:00;9.97;;;5.03;;
4377;SDS011;2203;53.686;9.994;2023-03-19T09:27:26;6.47;;;3.77;;
4377;SDS011;2203;53.686;9.994;2023-03-19T09:29:52;10.90;;;4.60;;
4377;SDS011;2203;53.686;9.994;2023-03-19T09:32:18;5.47;;;3.97;;
4377;SDS011;2203;53.686;9.994;2023-03-19T09:34:43;6.47;;;4.40;;
4377;SDS011;2203;53.686;9.994;2023-03-19T09:37:09;9.70;;;4.20;;
4377;SDS011;2203;53.686;9.994;2023-03-19T09:39:35;8.27;;;3.90;;
4377;SDS011;2203;53.686;9.994;2023-03-19T09:44:48;5.30;;;3.60;;
4377;SDS011;2203;53.686;9.994;2023-03-19T09:47:26;5.13;;;2.90;;
4377;SDS011;2203;53.686;9.994;2023-03-19T09:49:55;8.63;;;3.50;;
4377;SDS011;2203;53.686;9.994;2023-03-19T09:55:03;5.63;;;2.73;;
4377;SDS011;2203;53.686;9.994;2023-03-19T09:57:31;3.70;;;3.17;;
4377;SDS011;2203;53.686;9.994;2023-03-19T09:59:58;10.00;;;3.03;;
4377;SDS011;2203;53.686;9.994;2023-03-19T10:02:37;5.40;;;2.83;;
4377;SDS011;2203;53.686;9.994;2023-03-19T10:16:04;6.80;;;3.00;;
4377;SDS011;2203;53.686;9.994;2023-03-19T10:18:31;6.33;;;3.03;;
4377;SDS011;2203;53.686;9.994;2023-03-19T10:21:10;4.20;;;2.70;;
4377;SDS011;2203;53.686;9.994;2023-03-19T10:23:41;6.23;;;3.87;;
4377;SDS011;2203;53.686;9.994;2023-03-19T10:26:11;5.60;;;3.70;;
4377;SDS011;2203;53.686;9.994;2023-03-19T10:28:39;4.80;;;3.23;;
4377;SDS011;2203;53.686;9.994;2023-03-19T10:36:30;4.27;;;3.10;;
4377;SDS011;2203;53.686;9.994;2023-03-19T10:38:58;7.60;;;3.73;;
4377;SDS011;2203;53.686;9.994;2023-03-19T10:44:05;6.90;;;3.90;;
4377;SDS011;2203;53.686;9.994;2023-03-19T10:46:38;10.20;;;6.00;;
4377;SDS011;2203;53.686;9.994;2023-03-19T10:49:08;5.13;;;3.50;;
4377;SDS011;2203;53.686;9.994;2023-03-19T10:51:36;5.57;;;3.80;;
4377;SDS011;2203;53.686;9.994;2023-03-19T10:54:12;5.50;;;2.97;;
4377;SDS011;2203;53.686;9.994;2023-03-19T10:56:50;6.53;;;3.17;;
4377;SDS011;2203;53.686;9.994;2023-03-19T10:59:20;10.67;;;3.10;;
4377;SDS011;2203;53.686;9.994;2023-03-19T11:02:16;6.90;;;3.53;;
4377;SDS011;2203;53.686;9.994;2023-03-19T11:04:44;5.50;;;3.60;;
4377;SDS011;2203;53.686;9.994;2023-03-19T11:07:11;8.43;;;3.60;;
4377;SDS011;2203;53.686;9.994;2023-03-19T11:09:46;13.30;;;3.70;;
4377;SDS011;2203;53.686;9.994;2023-03-19T11:14:48;9.07;;;3.83;;
4377;SDS011;2203;53.686;9.994;2023-03-19T11:17:25;7.50;;;3.87;;
4377;SDS011;2203;53.686;9.994;2023-03-19T11:19:56;11.20;;;3.93;;
4377;SDS011;2203;53.686;9.994;2023-03-19T11:22:24;6.33;;;3.60;;
4377;SDS011;2203;53.686;9.994;2023-03-19T11:24:52;7.57;;;4.57;;
4377;SDS011;2203;53.686;9.994;2023-03-19T11:27:28;5.83;;;4.17;;
4377;SDS011;2203;53.686;9.994;2023-03-19T11:29:58;5.43;;;4.20;;
4377;SDS011;2203;53.686;9.994;2023-03-19T11:32:29;7.97;;;3.57;;
4377;SDS011;2203;53.686;9.994;2023-03-19T11:38:11;9.17;;;3.90;;
4377;SDS011;2203;53.686;9.994;2023-03-19T11:43:11;7.47;;;4.53;;
4377;SDS011;2203;53.686;9.994;2023-03-19T11:48:35;11.30;;;4.90;;
4377;SDS011;2203;53.686;9.994;2023-03-19T11:51:12;6.83;;;4.10;;
4377;SDS011;2203;53.686;9.994;2023-03-19T11:56:45;7.43;;;4.53;;
4377;SDS011;2203;53.686;9.994;2023-03-19T12:24:03;12.67;;;5.30;;
4377;SDS011;2203;53.686;9.994;2023-03-19T12:29:55;9.40;;;5.30;;
4377;SDS011;2203;53.686;9.994;2023-03-19T12:35:21;5.93;;;3.40;;
4377;SDS011;2203;53.686;9.994;2023-03-19T12:37:54;4.80;;;3.00;;
4377;SDS011;2203;53.686;9.994;2023-03-19T12:40:35;7.40;;;3.40;;
4377;SDS011;2203;53.686;9.994;2023-03-19T12:43:08;5.67;;;3.20;;
4377;SDS011;2203;53.686;9.994;2023-03-19T12:51:22;12.53;;;3.20;;
4377;SDS011;2203;53.686;9.994;2023-03-19T12:56:40;4.60;;;2.80;;
4377;SDS011;2203;53.686;9.994;2023-03-19T12:59:25;14.27;;;3.10;;
4377;SDS011;2203;53.686;9.994;2023-03-19T13:04:30;4.10;;;2.90;;
4377;SDS011;2203;53.686;9.994;2023-03-19T13:07:00;6.30;;;3.20;;
4377;SDS011;2203;53.686;9.994;2023-03-19T13:09:32;8.53;;;3.87;;
4377;SDS011;2203;53.686;9.994;2023-03-19T13:20:16;6.43;;;3.00;;
4377;SDS011;2203;53.686;9.994;2023-03-19T13:22:46;6.43;;;4.10;;
4377;SDS011;2203;53.686;9.994;2023-03-19T13:25:22;10.20;;;5.57;;
4377;SDS011;2203;53.686;9.994;2023-03-19T13:27:54;6.57;;;4.47;;
4377;SDS011;2203;53.686;9.994;2023-03-19T13:30:20;9.70;;;5.50;;
4377;SDS011;2203;53.686;9.994;2023-03-19T13:38:02;6.90;;;4.10;;
4377;SDS011;2203;53.686;9.994;2023-03-19T13:40:36;7.93;;;4.60;;
4377;SDS011;2203;53.686;9.994;2023-03-19T13:43:03;10.10;;;4.37;;
4377;SDS011;2203;53.686;9.994;2023-03-19T13:45:30;7.90;;;4.70;;
4377;SDS011;2203;53.686;9.994;2023-03-19T13:48:21;7.07;;;4.13;;
4377;SDS011;2203;53.686;9.994;2023-03-19T13:51:04;6.87;;;4.10;;
4377;SDS011;2203;53.686;9.994;2023-03-19T13:53:54;10.20;;;4.53;;
4377;SDS011;2203;53.686;9.994;2023-03-19T13:56:28;8.83;;;4.20;;
4377;SDS011;2203;53.686;9.994;2023-03-19T14:01:39;7.77;;;4.47;;
4377;SDS011;2203;53.686;9.994;2023-03-19T14:06:40;13.43;;;4.23;;
4377;SDS011;2203;53.686;9.994;2023-03-19T14:11:53;10.33;;;4.10;;
4377;SDS011;2203;53.686;9.994;2023-03-19T14:14:18;8.23;;;4.20;;
4377;SDS011;2203;53.686;9.994;2023-03-19T14:16:45;13.53;;;5.77;;
4377;SDS011;2203;53.686;9.994;2023-03-19T14:19:15;8.13;;;4.20;;
4377;SDS011;2203;53.686;9.994;2023-03-19T14:21:44;10.70;;;4.33;;
4377;SDS011;2203;53.686;9.994;2023-03-19T14:27:00;15.30;;;6.67;;
4377;SDS011;2203;53.686;9.994;2023-03-19T14:29:28;6.83;;;5.07;;
4377;SDS011;2203;53.686;9.994;2023-03-19T14:31:55;16.70;;;5.40;;
4377;SDS011;2203;53.686;9.994;2023-03-19T14:34:32;7.97;;;4.63;;
4377;SDS011;2203;53.686;9.994;2023-03-19T14:39:41;9.57;;;4.93;;
4377;SDS011;2203;53.686;9.994;2023-03-19T14:45:07;8.33;;;5.07;;
4377;SDS011;2203;53.686;9.994;2023-03-19T14:52:55;13.50;;;6.10;;
4377;SDS011;2203;53.686;9.994;2023-03-19T14:55:39;10.27;;;6.37;;
4377;SDS011;2203;53.686;9.994;2023-03-19T14:58:08;13.23;;;6.83;;
4377;SDS011;2203;53.686;9.994;2023-03-19T15:00:45;10.53;;;5.97;;
4377;SDS011;2203;53.686;9.994;2023-03-19T15:03:29;8.20;;;5.43;;
4377;SDS011;2203;53.686;9.994;2023-03-19T15:05:56;12.10;;;6.73;;
4377;SDS011;2203;53.686;9.994;2023-03-19T15:08:23;14.47;;;7.40;;
4377;SDS011;2203;53.686;9.994;2023-03-19T15:19:13;12.53;;;7.27;;
4377;SDS011;2203;53.686;9.994;2023-03-19T15:21:42;13.63;;;8.77;;
4377;SDS011;2203;53.686;9.994;2023-03-19T15:24:12;15.73;;;8.40;;
4377;SDS011;2203;53.686;9.994;2023-03-19T15:26:39;10.60;;;7.50;;
4377;SDS011;2203;53.686;9.994;2023-03-19T15:29:05;14.77;;;8.63;;
4377;SDS011;2203;53.686;9.994;2023-03-19T15:34:25;19.90;;;11.60;;
4377;SDS011;2203;53.686;9.994;2023-03-19T15:37:13;21.10;;;12.33;;
4377;SDS011;2203;53.686;9.994;2023-03-19T15:39:40;17.63;;;11.77;;
4377;SDS011;2203;53.686;9.994;2023-03-19T15:42:09;17.87;;;10.50;;
4377;SDS011;2203;53.686;9.994;2023-03-19T15:44:38;19.20;;;12.20;;
4377;SDS011;2203;53.686;9.994;2023-03-19T15:47:07;19.33;;;11.83;;
4377;SDS011;2203;53.686;9.994;2023-03-19T15:49:43;25.00;;;12.40;;
4377;SDS011;2203;53.686;9.994;2023-03-19T15:52:14;17.90;;;12.00;;
4377;SDS011;2203;53.686;9.994;2023-03-19T15:54:41;20.50;;;12.40;;
4377;SDS011;2203;53.686;9.994;2023-03-19T15:57:07;21.10;;;12.37;;
4377;SDS011;2203;53.686;9.994;2023-03-19T15:59:33;24.17;;;12.93;;
4377;SDS011;2203;53.686;9.994;2023-03-19T16:01:59;22.27;;;12.37;;
4377;SDS011;2203;53.686;9.994;2023-03-19T16:04:26;18.53;;;12.60;;
4377;SDS011;2203;53.686;9.994;2023-03-19T16:06:53;14.87;;;12.03;;
4377;SDS011;2203;53.686;9.994;2023-03-19T16:09:25;22.10;;;12.87;;
4377;SDS011;2203;53.686;9.994;2023-03-19T16:11:51;20.30;;;12.77;;
4377;SDS011;2203;53.686;9.994;2023-03-19T16:14:25;19.70;;;12.90;;
4377;SDS011;2203;53.686;9.994;2023-03-19T16:16:58;20.97;;;12.57;;
4377;SDS011;2203;53.686;9.994;2023-03-19T16:22:00;25.10;;;13.90;;
4377;SDS011;2203;53.686;9.994;2023-03-19T16:24:35;21.87;;;13.87;;
4377;SDS011;2203;53.686;9.994;2023-03-19T16:27:03;20.70;;;14.57;;
4377;SDS011;2203;53.686;9.994;2023-03-19T16:29:37;24.87;;;14.60;;
4377;SDS011;2203;53.686;9.994;2023-03-19T16:32:19;23.50;;;14.60;;
4377;SDS011;2203;53.686;9.994;2023-03-19T16:37:31;21.40;;;14.47;;
4377;SDS011;2203;53.686;9.994;2023-03-19T16:44:57;21.70;;;14.90;;
4377;SDS011;2203;53.686;9.994;2023-03-19T16:47:27;17.47;;;13.37;;
4377;SDS011;2203;53.686;9.994;2023-03-19T16:49:52;22.80;;;14.27;;
4377;SDS011;2203;53.686;9.994;2023-03-19T16:52:21;21.70;;;14.30;;
4377;SDS011;2203;53.686;9.994;2023-03-19T16:54:48;21.67;;;14.93;;
4377;SDS011;2203;53.686;9.994;2023-03-19T16:57:14;20.30;;;14.60;;
4377;SDS011;2203;53.686;9.994;2023-03-19T16:59:41;20.77;;;14.57;;
4377;SDS011;2203;53.686;9.994;2023-03-19T17:02:10;21.43;;;13.17;;
4377;SDS011;2203;53.686;9.994;2023-03-19T17:04:40;19.13;;;13.40;;
4377;SDS011;2203;53.686;9.994;2023-03-19T17:07:06;23.73;;;14.50;;
4377;SDS011;2203;53.686;9.994;2023-03-19T17:09:31;19.53;;;13.80;;
4377;SDS011;2203;53.686;9.994;2023-03-19T17:11:57;21.00;;;13.53;;
4377;SDS011;2203;53.686;9.994;2023-03-19T17:14:23;24.60;;;14.67;;
4377;SDS011;2203;53.686;9.994;2023-03-19T17:16:48;26.20;;;15.47;;
4377;SDS011;2203;53.686;9.994;2023-03-19T17:19:31;27.37;;;14.23;;
4377;SDS011;2203;53.686;9.994;2023-03-19T17:21:58;19.23;;;13.60;;
4377;SDS011;2203;53.686;9.994;2023-03-19T17:24:30;22.43;;;14.93;;
4377;SDS011;2203;53.686;9.994;2023-03-19T17:26:58;20.83;;;12.90;;
4377;SDS011;2203;53.686;9.994;2023-03-19T17:29:24;22.73;;;14.37;;